Time;durP1;ratioP1;P1;durP2;ratioP2;P2;SDS_P1;SDS_P2;PMS_P1;PMS_P2;Temp;Humidity;BMP_temperature;BMP_pressure;BME280_temperature;BME280_humidity;BME280_pressure;Samples;Min_cycle;Max_cycle;Signal;HPM_P1;HPM_P2
2021/03/31 00:02:23;;;;;;;;;;;;;;;28.72;20.85;101926.09;5120057;28;722;-46
2021/03/31 00:04:48;;;;;;;;;;;;;;;29.06;20.93;101932.47;5119697;28;763;-40
2021/03/31 00:07:14;;;;;;;;;;;;;;;28.97;21.15;101931.59;5119047;28;1902;-46
2021/03/31 00:09:39;;;;;;;;;;;;;;;29.35;20.35;101933.81;5120021;28;834;-44
2021/03/31 00:12:05;;;;;;;;;;;;;;;29.27;20.53;101928.38;5119746;28;790;-46
2021/03/31 00:14:31;;;;;;;;;;;;;;;28.90;20.88;101923.25;5119568;28;776;-40
2021/03/31 00:16:56;;;;;;;;;;;;;;;28.79;21.22;101927.13;5119430;28;807;-40
2021/03/31 00:19:21;;;;;;;;;;;;;;;28.94;21.37;101929.19;5119385;28;747;-39
2021/03/31 00:21:46;;;;;;;;;;;;;;;29.34;20.87;101921.28;5118749;28;949;-45
2021/03/31 00:24:12;;;;;;;;;;;;;;;29.35;20.59;101922.97;5119491;28;810;-39
2021/03/31 00:26:37;;;;;;;;;;;;;;;29.08;20.80;101917.72;5119453;28;799;-46
2021/03/31 00:29:02;;;;;;;;;;;;;;;28.91;20.90;101919.50;5118985;28;1893;-45
2021/03/31 00:31:28;;;;;;;;;;;;;;;28.68;21.55;101922.00;5119405;28;870;-38
2021/03/31 00:33:53;;;;;;;;;;;;;;;29.05;21.05;101923.47;5119342;28;819;-45
2021/03/31 00:36:18;;;;;;;;;;;;;;;29.24;20.80;101918.75;5118686;28;1024;-47
2021/03/31 00:38:44;;;;;;;;;;;;;;;29.35;20.74;101917.53;5119233;28;775;-41
2021/03/31 00:41:09;;;;;;;;;;;;;;;29.13;20.83;101919.09;5119027;28;953;-41
2021/03/31 00:43:34;;;;;;;;;;;;;;;28.91;20.82;101918.69;5118764;28;1172;-46
2021/03/31 00:45:59;;;;;;;;;;;;;;;28.92;21.56;101917.66;5119023;28;803;-47
2021/03/31 00:48:25;;;;;;;;;;;;;;;29.09;21.40;101913.16;5118698;28;1959;-39
2021/03/31 00:50:54;;;;;;;;;;;;;;;29.42;20.63;101915.00;5118848;28;822;-41
2021/03/31 00:53:20;;;;;;;;;;;;;;;29.24;20.88;101915.19;5117794;28;888;-45
2021/03/31 00:55:45;;;;;;;;;;;;;;;28.85;20.88;101914.78;5119041;28;775;-38
2021/03/31 00:58:11;;;;;;;;;;;;;;;28.62;21.98;101909.13;5100750;28;736;-40
2021/03/31 01:00:36;;;;;;;;;;;;;;;28.83;21.68;101906.81;5119052;28;747;-38
2021/03/31 01:03:01;;;;;;;;;;;;;;;29.27;21.13;101907.56;5118855;28;739;-39
2021/03/31 01:05:28;;;;;;;;;;;;;;;29.38;20.74;101905.53;5118549;28;739;-46
2021/03/31 01:07:53;;;;;;;;;;;;;;;29.02;20.88;101902.16;5117354;28;1905;-40
2021/03/31 01:10:19;;;;;;;;;;;;;;;28.78;20.95;101897.53;5118771;28;811;-38
2021/03/31 01:12:57;;;;;;;;;;;;;;;28.64;21.83;101899.84;5118373;28;1397;-40
2021/03/31 01:15:24;;;;;;;;;;;;;;;28.97;21.75;101896.38;5118325;28;798;-44
2021/03/31 01:17:53;;;;;;;;;;;;;;;29.31;20.85;101905.38;5100324;28;752;-43
2021/03/31 01:20:37;;;;;;;;;;;;;;;29.29;20.71;101894.69;5118555;28;783;-43
2021/03/31 01:23:20;;;;;;;;;;;;;;;28.86;21.00;101894.81;5116983;28;938;-41
2021/03/31 01:26:01;;;;;;;;;;;;;;;28.72;21.31;101896.31;5118417;28;760;-39
2021/03/31 01:28:35;;;;;;;;;;;;;;;28.94;21.36;101896.69;5117767;28;1905;-43
2021/03/31 01:31:19;;;;;;;;;;;;;;;29.20;21.25;101893.00;5118221;28;787;-40
2021/03/31 01:33:56;;;;;;;;;;;;;;;29.33;20.49;101890.63;5118292;28;871;-43
2021/03/31 01:36:21;;;;;;;;;;;;;;;29.13;20.68;101892.00;5116228;28;962;-43
2021/03/31 01:38:48;;;;;;;;;;;;;;;28.77;21.33;101893.09;5099735;28;765;-43
2021/03/31 01:41:13;;;;;;;;;;;;;;;28.73;21.94;101892.56;5099951;28;1002;-43
2021/03/31 01:43:39;;;;;;;;;;;;;;;28.92;21.49;101894.16;5099347;28;1084;-40
2021/03/31 01:46:04;;;;;;;;;;;;;;;29.21;21.03;101897.41;5099739;28;886;-43
2021/03/31 01:48:30;;;;;;;;;;;;;;;29.35;20.44;101887.72;5118111;28;1909;-43
2021/03/31 01:50:57;;;;;;;;;;;;;;;29.20;20.64;101893.84;5099135;28;974;-40
2021/03/31 01:53:22;;;;;;;;;;;;;;;28.83;20.93;101896.00;5117647;28;935;-42
2021/03/31 01:55:48;;;;;;;;;;;;;;;28.48;21.89;101887.09;5118092;28;816;-43
2021/03/31 01:58:13;;;;;;;;;;;;;;;28.83;21.68;101895.13;5099392;28;751;-43
2021/03/31 02:00:38;;;;;;;;;;;;;;;29.07;21.47;101882.66;5098896;28;873;-38
2021/03/31 02:03:04;;;;;;;;;;;;;;;29.29;20.82;101893.84;5099559;28;779;-43
2021/03/31 02:05:29;;;;;;;;;;;;;;;29.16;20.79;101897.06;5099232;28;882;-39
2021/03/31 02:07:54;;;;;;;;;;;;;;;28.90;20.87;101898.88;5116227;28;1964;-45
2021/03/31 02:10:21;;;;;;;;;;;;;;;28.38;21.99;101899.94;5099449;28;759;-45
2021/03/31 02:12:46;;;;;;;;;;;;;;;28.70;21.63;101901.91;5116889;28;851;-46
2021/03/31 02:15:12;;;;;;;;;;;;;;;28.84;21.66;101902.25;5098927;28;815;-44
2021/03/31 02:17:37;;;;;;;;;;;;;;;29.29;20.72;101907.41;5099538;28;732;-45
2021/03/31 02:20:03;;;;;;;;;;;;;;;29.18;20.62;101903.16;5098840;28;906;-46
2021/03/31 02:22:28;;;;;;;;;;;;;;;28.87;21.32;101903.78;5097399;28;1190;-46
2021/03/31 02:24:54;;;;;;;;;;;;;;;28.51;21.64;101904.91;5117447;28;863;-46
2021/03/31 02:27:19;;;;;;;;;;;;;;;28.64;22.12;101907.97;5098621;28;1890;-39
2021/03/31 02:29:45;;;;;;;;;;;;;;;28.84;21.74;101907.69;5117206;28;850;-46
2021/03/31 02:32:10;;;;;;;;;;;;;;;29.27;20.95;101906.72;5117298;28;779;-44
2021/03/31 02:34:35;;;;;;;;;;;;;;;29.24;20.77;101905.19;5117122;28;843;-42
2021/03/31 02:37:01;;;;;;;;;;;;;;;28.99;21.09;101907.03;5097133;28;950;-39
2021/03/31 02:39:26;;;;;;;;;;;;;;;28.80;21.09;101907.16;5117382;28;774;-44
2021/03/31 02:41:54;;;;;;;;;;;;;;;28.62;22.01;101903.72;5116479;28;1342;-43
2021/03/31 02:44:19;;;;;;;;;;;;;;;28.77;21.68;101910.19;5099029;28;811;-41
2021/03/31 02:46:44;;;;;;;;;;;;;;;28.96;21.55;101905.50;5098903;28;822;-39
2021/03/31 02:49:10;;;;;;;;;;;;;;;29.36;20.78;101905.72;5097978;28;1907;-43
2021/03/31 02:51:35;;;;;;;;;;;;;;;29.17;20.92;101907.75;5116073;28;1025;-40
2021/03/31 02:54:04;;;;;;;;;;;;;;;28.88;21.24;101914.44;5098906;28;771;-40
2021/03/31 02:56:29;;;;;;;;;;;;;;;28.62;21.95;101909.13;5097973;28;1548;-39
2021/03/31 02:58:54;;;;;;;;;;;;;;;28.65;22.12;101914.22;5116620;28;808;-43
2021/03/31 03:01:20;;;;;;;;;;;;;;;28.81;21.86;101913.44;5099002;28;830;-37
2021/03/31 03:03:45;;;;;;;;;;;;;;;29.38;20.81;101916.38;5116914;28;743;-43
2021/03/31 03:06:10;;;;;;;;;;;;;;;29.24;20.86;101915.19;5097098;28;922;-38
2021/03/31 03:08:35;;;;;;;;;;;;;;;28.85;21.33;101920.19;5098505;28;1909;-39
2021/03/31 03:11:01;;;;;;;;;;;;;;;28.54;21.59;101920.81;5099925;28;895;-43
2021/03/31 03:13:30;;;;;;;;;;;;;;;28.58;20.41;101914.03;5120984;28;847;-41
2021/03/31 03:15:55;;;;;;;;;;;;;;;28.88;20.28;101917.16;5102669;28;834;-37
2021/03/31 03:18:20;;;;;;;;;;;;;;;28.91;19.99;101915.97;5120096;28;803;-37
2021/03/31 03:20:46;;;;;;;;;;;;;;;28.37;20.97;101920.75;5121102;28;790;-37
2021/03/31 03:23:11;;;;;;;;;;;;;;;28.71;20.43;101919.81;5083731;28;989;-40
2021/03/31 03:25:36;;;;;;;;;;;;;;;27.91;21.31;101921.81;5081632;28;851;-45
2021/03/31 03:28:02;;;;;;;;;;;;;;;27.12;21.22;101917.16;5082383;28;1905;-33
2021/03/31 03:30:28;;;;;;;;;;;;;;;24.83;20.79;101911.53;5099697;28;1059;-36
2021/03/31 03:32:53;;;;;;;;;;;;;;;24.00;21.13;101917.00;5081951;28;802;-43
2021/03/31 03:35:20;;;;;;;;;;;;;;;23.25;21.54;101910.69;5082087;28;739;-36
2021/03/31 03:37:46;;;;;;;;;;;;;;;25.71;21.22;101918.94;5082347;28;1006;-32
2021/03/31 03:40:11;;;;;;;;;;;;;;;26.90;20.10;101919.28;5099726;28;799;-32
2021/03/31 03:42:37;;;;;;;;;;;;;;;27.54;19.61;101918.38;5099553;28;1102;-34
2021/03/31 03:45:03;;;;;;;;;;;;;;;27.81;19.38;101915.72;5099739;28;787;-36
2021/03/31 03:47:29;;;;;;;;;;;;;;;25.29;18.07;101814.06;5081477;28;1968;-34
2021/03/31 03:49:54;;;;;;;;;;;;;;;24.52;19.46;101917.00;5100391;28;764;-34
2021/03/31 03:52:20;;;;;;;;;;;;;;;24.50;21.08;101918.97;5082148;28;970;-35
2021/03/31 03:54:50;;;;;;;;;;;;;;;25.33;20.88;101918.78;5099055;28;866;-36
2021/03/31 03:57:20;;;;;;;;;;;;;;;25.45;20.63;101923.06;5081301;28;1119;-35
2021/03/31 03:59:45;;;;;;;;;;;;;;;26.40;21.09;101926.81;5099209;28;1070;-32
2021/03/31 04:02:11;;;;;;;;;;;;;;;26.78;20.46;101932.16;5099618;28;1167;-33
2021/03/31 04:04:36;;;;;;;;;;;;;;;27.07;20.33;101935.69;5099577;28;839;-38
2021/03/31 04:07:01;;;;;;;;;;;;;;;27.36;20.22;101940.00;5099693;28;1006;-45
2021/03/31 04:09:27;;;;;;;;;;;;;;;27.51;20.19;101938.44;5081306;28;1898;-45
2021/03/31 04:11:52;;;;;;;;;;;;;;;26.76;21.08;101937.69;5069622;28;1174;-41
2021/03/31 04:14:17;;;;;;;;;;;;;;;26.44;21.35;101943.56;5081219;28;818;-35
2021/03/31 04:16:43;;;;;;;;;;;;;;;26.88;20.73;101946.44;5076794;28;1310;-37
2021/03/31 04:19:10;;;;;;;;;;;;;;;27.37;20.33;101939.00;5077258;28;1077;-35
2021/03/31 04:21:35;;;;;;;;;;;;;;;27.40;20.08;101941.38;5080206;28;808;-36
2021/03/31 04:24:01;;;;;;;;;;;;;;;27.55;19.93;101948.94;5109601;28;1194;-36
2021/03/31 04:26:26;;;;;;;;;;;;;;;27.77;19.76;101949.47;5100595;28;854;-35
2021/03/31 04:28:52;;;;;;;;;;;;;;;26.84;20.75;101947.72;5101132;28;1901;-35
2021/03/31 04:31:17;;;;;;;;;;;;;;;26.37;21.17;101940.63;5101338;28;815;-38
2021/03/31 04:33:42;;;;;;;;;;;;;;;25.09;19.11;101934.38;5118106;28;934;-35
2021/03/31 04:36:08;;;;;;;;;;;;;;;24.40;19.66;101934.19;5090943;28;1139;-37
2021/03/31 04:38:33;;;;;;;;;;;;;;;24.07;20.23;101937.84;5098419;28;791;-37
2021/03/31 04:40:59;;;;;;;;;;;;;;;23.63;20.10;101948.75;5098505;28;822;-37
2021/03/31 04:43:26;;;;;;;;;;;;;;;24.90;21.72;101945.94;5098815;28;1099;-36
2021/03/31 04:45:58;;;;;;;;;;;;;;;25.70;21.57;101949.56;5080486;28;1121;-41
2021/03/31 04:48:23;;;;;;;;;;;;;;;26.17;21.13;101941.50;5098767;28;1913;-41
2021/03/31 04:50:49;;;;;;;;;;;;;;;26.78;20.36;101942.94;5098818;28;810;-47
2021/03/31 04:53:14;;;;;;;;;;;;;;;26.40;20.08;101940.31;5098137;28;1598;-37
2021/03/31 04:55:39;;;;;;;;;;;;;;;25.94;21.14;101945.56;5098338;28;823;-34
2021/03/31 04:58:05;;;;;;;;;;;;;;;26.25;21.00;101954.28;5098693;28;734;-35
2021/03/31 05:00:30;;;;;;;;;;;;;;;26.99;20.59;101953.47;5098288;28;864;-41
2021/03/31 05:02:55;;;;;;;;;;;;;;;27.08;20.08;101958.97;5097795;28;987;-43
2021/03/31 05:05:20;;;;;;;;;;;;;;;27.17;19.83;101957.22;5096267;28;831;-37
2021/03/31 05:07:46;;;;;;;;;;;;;;;26.65;20.25;101954.97;5097996;28;1901;-43
2021/03/31 05:10:11;;;;;;;;;;;;;;;26.18;20.64;101958.53;5097595;28;852;-37
2021/03/31 05:12:36;;;;;;;;;;;;;;;26.53;20.47;101964.25;5098206;28;1119;-41
2021/03/31 05:15:03;;;;;;;;;;;;;;;26.81;20.37;101963.41;5097871;28;875;-40
2021/03/31 05:17:28;;;;;;;;;;;;;;;27.01;19.51;101965.00;5097524;28;935;-41
2021/03/31 05:19:53;;;;;;;;;;;;;;;27.06;19.40;101961.00;5097711;28;1030;-41
2021/03/31 05:22:19;;;;;;;;;;;;;;;27.02;19.80;101960.47;5097841;28;752;-41
2021/03/31 05:24:44;;;;;;;;;;;;;;;26.36;20.22;101963.22;5097362;28;831;-41
2021/03/31 05:27:09;;;;;;;;;;;;;;;26.28;20.73;101961.19;5097678;28;1922;-40
2021/03/31 05:29:34;;;;;;;;;;;;;;;26.90;19.94;101963.34;5098297;28;811;-40
2021/03/31 05:32:00;;;;;;;;;;;;;;;26.73;20.08;101962.31;5097473;28;1025;-40
2021/03/31 05:34:25;;;;;;;;;;;;;;;26.74;19.99;101971.25;5096222;28;923;-42
2021/03/31 05:36:51;;;;;;;;;;;;;;;26.33;20.52;101969.72;5097643;28;831;-39
2021/03/31 05:39:16;;;;;;;;;;;;;;;25.89;20.59;101972.97;5096877;28;1483;-40
2021/03/31 05:41:41;;;;;;;;;;;;;;;26.03;19.31;101975.19;5105800;28;908;-40
2021/03/31 05:44:08;;;;;;;;;;;;;;;26.21;19.23;101974.44;5107041;28;1150;-39
2021/03/31 05:46:33;;;;;;;;;;;;;;;26.36;19.20;101965.91;5080286;28;1002;-40
2021/03/31 05:48:59;;;;;;;;;;;;;;;26.52;19.67;101963.41;5099017;28;1909;-42
2021/03/31 05:51:24;;;;;;;;;;;;;;;26.96;20.22;101967.28;5069524;28;955;-37
2021/03/31 05:53:49;;;;;;;;;;;;;;;26.57;19.85;101962.97;5112928;28;759;-37
2021/03/31 05:56:15;;;;;;;;;;;;;;;26.71;20.52;101966.16;5099257;28;887;-38
2021/03/31 05:58:40;;;;;;;;;;;;;;;26.57;21.01;101962.09;5117667;28;798;-34
2021/03/31 06:01:06;;;;;;;;;;;;;;;27.04;20.28;101965.69;5099023;28;834;-37
2021/03/31 06:03:32;;;;;;;;;;;;;;;26.98;20.25;101959.88;5092846;28;997;-36
2021/03/31 06:05:58;;;;;;;;;;;;;;;26.97;20.47;101963.59;5079157;28;853;-33
2021/03/31 06:08:23;;;;;;;;;;;;;;;26.86;20.43;101961.09;5078292;28;1972;-33
2021/03/31 06:10:49;;;;;;;;;;;;;;;26.08;20.68;101955.88;5097276;28;775;-34
2021/03/31 06:13:14;;;;;;;;;;;;;;;25.21;21.84;101959.34;5093741;28;1236;-34
2021/03/31 06:15:41;;;;;;;;;;;;;;;25.93;20.21;101958.19;5116748;28;818;-34
2021/03/31 06:18:07;;;;;;;;;;;;;;;24.81;20.80;101956.56;5116685;28;962;-38
2021/03/31 06:20:40;;;;;;;;;;;;;;;24.73;21.10;101953.69;5117288;28;803;-39
2021/03/31 06:23:14;;;;;;;;;;;;;;;24.06;20.95;101956.78;5116670;28;835;-32
2021/03/31 06:25:48;;;;;;;;;;;;;;;23.79;21.24;101958.19;5117174;28;811;-36
2021/03/31 06:28:14;;;;;;;;;;;;;;;24.05;21.16;101947.88;5099938;28;1975;-39
2021/03/31 06:30:39;;;;;;;;;;;;;;;24.18;22.52;101953.06;5098245;28;1469;-40
2021/03/31 06:33:05;;;;;;;;;;;;;;;23.89;21.42;101961.78;5116179;28;942;-35
2021/03/31 06:35:30;;;;;;;;;;;;;;;24.27;22.35;101956.81;5098587;28;815;-39
2021/03/31 06:38:16;;;;;;;;;;;;;;;24.16;22.61;101960.41;5116449;28;733;-40
2021/03/31 06:40:45;;;;;;;;;;;;;;;22.76;21.86;101959.34;5117046;28;809;-39
2021/03/31 06:43:22;;;;;;;;;;;;;;;23.89;22.17;101953.72;5116294;28;1106;-39
2021/03/31 06:45:59;;;;;;;;;;;;;;;24.49;22.26;101952.19;5116501;28;759;-38
2021/03/31 06:48:27;;;;;;;;;;;;;;;24.83;22.64;101959.09;5115656;28;1917;-40
2021/03/31 06:50:52;;;;;;;;;;;;;;;25.21;22.06;101947.75;5116705;28;760;-40
2021/03/31 06:53:24;;;;;;;;;;;;;;;25.36;22.14;101954.38;5116596;28;799;-36
2021/03/31 06:55:56;;;;;;;;;;;;;;;24.86;21.49;101955.31;5116569;28;777;-36
2021/03/31 06:58:22;;;;;;;;;;;;;;;25.54;21.90;101957.22;5116926;28;818;-38
2021/03/31 07:00:47;;;;;;;;;;;;;;;25.95;21.61;101955.34;5116474;28;755;-38
2021/03/31 07:03:12;;;;;;;;;;;;;;;25.22;22.85;101963.75;5115499;28;962;-38
2021/03/31 07:05:39;;;;;;;;;;;;;;;24.96;23.78;101961.56;5098295;28;1244;-45
2021/03/31 07:08:05;;;;;;;;;;;;;;;24.80;24.07;101957.56;5116301;28;1905;-35
2021/03/31 07:10:39;;;;;;;;;;;;;;;24.72;24.45;101961.91;5116549;28;767;-37
2021/03/31 07:13:04;;;;;;;;;;;;;;;24.74;24.17;101958.09;5102980;28;1075;-40
2021/03/31 07:15:30;;;;;;;;;;;;;;;24.49;24.59;101949.50;5095546;28;854;-37
2021/03/31 07:17:55;;;;;;;;;;;;;;;24.65;23.52;101957.09;5078169;28;955;-35
2021/03/31 07:20:21;;;;;;;;;;;;;;;25.03;22.39;101948.41;5096001;28;816;-39
2021/03/31 07:22:47;;;;;;;;;;;;;;;24.92;22.62;101947.53;5095820;28;793;-36
2021/03/31 07:25:13;;;;;;;;;;;;;;;24.77;23.39;101952.47;5096102;28;834;-40
2021/03/31 07:27:39;;;;;;;;;;;;;;;24.80;23.07;101946.78;5096098;28;1910;-42
2021/03/31 07:30:14;;;;;;;;;;;;;;;23.65;20.85;101943.22;5095721;28;825;-43
2021/03/31 07:32:43;;;;;;;;;;;;;;;23.97;21.81;101945.00;5106314;28;963;-45
2021/03/31 07:35:09;;;;;;;;;;;;;;;23.97;20.97;101942.31;5116154;28;858;-43
2021/03/31 07:37:34;;;;;;;;;;;;;;;24.42;21.52;101940.31;5097771;28;771;-38
2021/03/31 07:40:00;;;;;;;;;;;;;;;24.42;20.75;101940.31;5116508;28;817;-40
2021/03/31 07:42:26;;;;;;;;;;;;;;;23.70;20.12;101936.50;5116320;28;1106;-40
2021/03/31 07:44:52;;;;;;;;;;;;;;;23.93;20.45;101944.41;5097919;28;748;-40
2021/03/31 07:47:17;;;;;;;;;;;;;;;24.39;20.74;101944.09;5114981;28;1909;-41
2021/03/31 07:49:42;;;;;;;;;;;;;;;24.68;20.17;101939.81;5098600;28;759;-41
2021/03/31 07:52:07;;;;;;;;;;;;;;;24.70;19.68;101929.78;5097578;28;854;-41
2021/03/31 07:54:33;;;;;;;;;;;;;;;24.96;20.35;101931.97;5116413;28;817;-42
2021/03/31 07:56:59;;;;;;;;;;;;;;;24.84;19.03;101925.81;5116443;28;820;-43
2021/03/31 07:59:25;;;;;;;;;;;;;;;24.83;19.38;101926.81;5101067;28;791;-41
2021/03/31 08:01:51;;;;;;;;;;;;;;;24.70;19.71;101925.25;5118832;28;1493;-41
2021/03/31 08:04:18;;;;;;;;;;;;;;;24.47;19.31;101921.91;5119848;28;795;-43
2021/03/31 08:06:44;;;;;;;;;;;;;;;24.04;18.31;101924.66;5119403;28;815;-40
2021/03/31 08:09:10;;;;;;;;;;;;;;;24.03;20.70;101917.59;5119780;28;1959;-40
2021/03/31 08:11:38;;;;;;;;;;;;;;;24.05;19.33;101918.31;5118149;28;1110;-40
2021/03/31 08:14:04;;;;;;;;;;;;;;;23.94;18.05;101910.34;5098864;28;831;-41
2021/03/31 08:16:33;;;;;;;;;;;;;;;24.89;20.27;101918.19;5098960;28;939;-41
2021/03/31 08:18:59;;;;;;;;;;;;;;;24.40;17.82;101904.63;5099095;28;775;-42
2021/03/31 08:21:25;;;;;;;;;;;;;;;23.80;17.26;101901.63;5098709;28;767;-42
2021/03/31 08:23:53;;;;;;;;;;;;;;;24.18;19.72;101904.69;5099134;28;790;-42
2021/03/31 08:26:43;;;;;;;;;;;;;;;25.02;19.67;101899.13;5098960;28;801;-43
2021/03/31 08:29:11;;;;;;;;;;;;;;;24.91;19.16;101883.06;5098563;28;1898;-42
2021/03/31 08:31:38;;;;;;;;;;;;;;;24.48;18.39;101902.09;5098997;28;1010;-42
2021/03/31 08:34:03;;;;;;;;;;;;;;;24.51;19.05;101903.66;5098755;28;791;-42
2021/03/31 08:36:29;;;;;;;;;;;;;;;24.44;18.53;101890.75;5098407;28;839;-41
2021/03/31 08:38:55;;;;;;;;;;;;;;;24.32;18.56;101889.16;5098626;28;783;-42
2021/03/31 08:41:23;;;;;;;;;;;;;;;24.40;18.80;101891.16;5098059;28;958;-42
2021/03/31 08:43:49;;;;;;;;;;;;;;;24.84;20.18;101888.13;5098285;28;1362;-41
2021/03/31 08:46:35;;;;;;;;;;;;;;;24.39;18.30;101895.69;5098568;28;756;-42
2021/03/31 08:49:00;;;;;;;;;;;;;;;24.19;17.45;101884.03;5097780;28;1906;-42
2021/03/31 08:51:25;;;;;;;;;;;;;;;24.85;20.23;101886.31;5098266;28;758;-43
2021/03/31 08:53:51;;;;;;;;;;;;;;;25.01;20.64;101875.00;5098349;28;839;-41
2021/03/31 08:56:17;;;;;;;;;;;;;;;25.28;21.07;101882.38;5098587;28;767;-39
2021/03/31 08:58:42;;;;;;;;;;;;;;;25.06;21.94;101881.69;5098460;28;732;-39
2021/03/31 09:01:07;;;;;;;;;;;;;;;25.26;21.87;101878.13;5098457;28;739;-38
2021/03/31 09:03:33;;;;;;;;;;;;;;;25.71;20.92;101875.84;5106422;28;1333;-32
2021/03/31 09:05:59;;;;;;;;;;;;;;;25.85;21.06;101880.75;5097686;28;883;-49
2021/03/31 09:08:24;;;;;;;;;;;;;;;26.08;20.80;101874.97;5097268;28;1968;-45
2021/03/31 09:10:53;;;;;;;;;;;;;;;26.00;20.79;101864.09;5098202;28;924;-44
2021/03/31 09:13:22;;;;;;;;;;;;;;;25.58;22.07;101868.00;5118041;28;1126;-43
2021/03/31 09:15:54;;;;;;;;;;;;;;;25.38;22.42;101866.22;5118781;28;783;-44
2021/03/31 09:18:19;;;;;;;;;;;;;;;25.99;21.68;101855.13;5117812;28;1001;-45
2021/03/31 09:20:45;;;;;;;;;;;;;;;26.08;21.72;101850.72;5099809;28;759;-44
2021/03/31 09:23:23;;;;;;;;;;;;;;;26.19;21.59;101856.91;5098901;28;768;-44
2021/03/31 09:25:55;;;;;;;;;;;;;;;26.31;21.50;101857.56;5118591;28;747;-34
2021/03/31 09:28:20;;;;;;;;;;;;;;;26.25;19.93;101856.31;5117748;28;1901;-33
2021/03/31 09:30:48;;;;;;;;;;;;;;;25.83;17.23;101853.09;5118175;28;874;-38
2021/03/31 09:33:15;;;;;;;;;;;;;;;26.11;19.61;101857.66;5103390;28;1157;-46
2021/03/31 09:35:40;;;;;;;;;;;;;;;26.27;20.26;101848.94;5096224;28;827;-48
2021/03/31 09:38:06;;;;;;;;;;;;;;;26.32;20.83;101854.72;5098520;28;753;-43
2021/03/31 09:40:32;;;;;;;;;;;;;;;26.19;21.19;101846.13;5097189;28;829;-43
2021/03/31 09:43:02;;;;;;;;;;;;;;;26.33;20.85;101848.34;5096678;28;1077;-39
2021/03/31 09:45:29;;;;;;;;;;;;;;;26.22;21.11;101835.91;5096842;28;823;-47
2021/03/31 09:47:56;;;;;;;;;;;;;;;26.25;21.58;101832.03;5109615;28;1978;-38
2021/03/31 09:50:22;;;;;;;;;;;;;;;25.90;20.75;101838.03;5117246;28;775;-39
2021/03/31 09:52:49;;;;;;;;;;;;;;;25.49;19.10;101835.56;5117670;28;823;-38
2021/03/31 09:55:14;;;;;;;;;;;;;;;25.66;21.71;101834.00;5098804;28;1352;-41
2021/03/31 09:57:40;;;;;;;;;;;;;;;25.59;20.27;101834.69;5117130;28;819;-43
2021/03/31 10:00:06;;;;;;;;;;;;;;;25.70;21.12;101831.00;5100911;28;1154;-42
2021/03/31 10:02:31;;;;;;;;;;;;;;;25.46;17.82;101830.47;5104236;28;927;-44
2021/03/31 10:05:00;;;;;;;;;;;;;;;25.33;17.94;101819.16;5117168;28;791;-42
2021/03/31 10:07:26;;;;;;;;;;;;;;;25.46;20.45;101821.56;5116400;28;1960;-42
2021/03/31 10:09:51;;;;;;;;;;;;;;;25.64;20.87;101810.91;5117162;28;790;-40
2021/03/31 10:12:21;;;;;;;;;;;;;;;25.47;21.23;101816.03;5109983;28;1107;-41
2021/03/31 10:14:47;;;;;;;;;;;;;;;25.44;20.03;101811.75;5097317;28;774;-41
2021/03/31 10:17:13;;;;;;;;;;;;;;;25.53;20.45;101804.66;5096537;28;966;-39
2021/03/31 10:19:39;;;;;;;;;;;;;;;25.61;20.94;101801.22;5098897;28;1212;-38
2021/03/31 10:22:05;;;;;;;;;;;;;;;25.47;21.44;101794.47;5088644;28;1320;-37
2021/03/31 10:24:34;;;;;;;;;;;;;;;25.60;20.54;101795.97;5110273;28;1301;-38
2021/03/31 10:26:59;;;;;;;;;;;;;;;25.52;19.75;101810.19;5096651;28;765;-38
2021/03/31 10:29:25;;;;;;;;;;;;;;;25.51;20.08;101803.06;5099648;28;1968;-39
2021/03/31 10:31:50;;;;;;;;;;;;;;;26.10;19.94;101808.28;5106685;28;823;-38
2021/03/31 10:34:17;;;;;;;;;;;;;;;25.76;19.19;101809.69;5116623;28;866;-38
2021/03/31 10:37:10;;;;;;;;;;;;;;;25.57;19.28;101805.22;5116628;28;845;-39
2021/03/31 10:40:04;;;;;;;;;;;;;;;25.77;19.25;101795.25;5116486;28;1562;-41
2021/03/31 10:50:30;;;;;;;;;;;;;;;22.68;22.16;101776.72;5115059;28;1145;-41
2021/03/31 10:52:59;;;;;;;;;;;;;;;22.57;21.89;101783.78;5116502;28;851;-38
2021/03/31 10:55:24;;;;;;;;;;;;;;;24.80;20.46;101785.31;5116911;28;858;-41
2021/03/31 10:57:49;;;;;;;;;;;;;;;25.16;22.17;101791.97;5116196;28;790;-40
2021/03/31 11:00:15;;;;;;;;;;;;;;;23.96;21.09;101774.84;5117132;28;755;-38
2021/03/31 11:02:40;;;;;;;;;;;;;;;22.87;22.17;101782.25;5116093;28;942;-38
2021/03/31 11:05:06;;;;;;;;;;;;;;;23.23;22.17;101765.00;5116120;28;767;-40
2021/03/31 11:07:31;;;;;;;;;;;;;;;23.25;21.95;101760.34;5116304;28;1910;-42
2021/03/31 11:09:56;;;;;;;;;;;;;;;22.98;22.52;101764.41;5116706;28;814;-40
2021/03/31 11:12:22;;;;;;;;;;;;;;;23.52;21.98;101771.53;5108453;28;1138;-35
2021/03/31 11:14:47;;;;;;;;;;;;;;;23.76;21.88;101770.34;5096425;28;727;-35
2021/03/31 11:17:21;;;;;;;;;;;;;;;25.00;20.54;101773.72;5096391;28;946;-35
2021/03/31 11:19:56;;;;;;;;;;;;;;;25.55;20.19;101769.47;5095737;28;948;-35
2021/03/31 11:27:51;;;;;;;;;;;;;;;25.53;19.91;101758.84;5095508;28;1906;-39
2021/03/31 11:30:16;;;;;;;;;;;;;;;24.98;20.56;101754.16;5096268;28;719;-35
2021/03/31 11:32:41;;;;;;;;;;;;;;;25.38;20.27;101745.00;5097454;28;923;-43
2021/03/31 11:35:07;;;;;;;;;;;;;;;25.54;20.31;101744.38;5099630;28;758;-37
2021/03/31 11:37:32;;;;;;;;;;;;;;;23.95;20.57;101738.22;5099803;28;982;-34
2021/03/31 11:39:57;;;;;;;;;;;;;;;21.95;23.37;101730.72;5100121;28;858;-38
2021/03/31 11:42:23;;;;;;;;;;;;;;;23.17;22.11;101734.16;5099509;28;1071;-39
2021/03/31 11:44:48;;;;;;;;;;;;;;;23.14;21.95;101734.41;5099986;28;798;-40
2021/03/31 11:47:14;;;;;;;;;;;;;;;23.00;21.65;101728.38;5099497;28;958;-40
2021/03/31 11:49:39;;;;;;;;;;;;;;;22.62;22.29;101727.97;5099163;28;1974;-38
2021/03/31 11:52:05;;;;;;;;;;;;;;;22.79;22.11;101717.66;5099857;28;834;-40
2021/03/31 11:54:30;;;;;;;;;;;;;;;23.07;22.33;101706.41;5099644;28;802;-39
2021/03/31 11:56:55;;;;;;;;;;;;;;;24.15;21.01;101702.44;5099581;28;806;-36
2021/03/31 11:59:21;;;;;;;;;;;;;;;25.67;19.69;101702.81;5099199;28;799;-35
2021/03/31 12:01:46;;;;;;;;;;;;;;;25.98;18.68;101710.56;5081007;28;1518;-31
2021/03/31 12:04:12;;;;;;;;;;;;;;;25.17;19.69;101704.81;5099249;28;751;-35
2021/03/31 12:06:37;;;;;;;;;;;;;;;25.06;19.87;101708.53;5105853;28;1105;-40
2021/03/31 12:09:06;;;;;;;;;;;;;;;25.74;19.44;101697.66;5103454;28;1972;-40
2021/03/31 12:11:31;;;;;;;;;;;;;;;25.76;18.68;101692.94;5100039;28;1123;-36
2021/03/31 12:13:56;;;;;;;;;;;;;;;25.24;19.62;101684.38;5119665;28;793;-40
2021/03/31 12:16:21;;;;;;;;;;;;;;;25.27;19.82;101680.56;5119295;28;1017;-44
2021/03/31 12:18:47;;;;;;;;;;;;;;;25.47;19.15;101675.94;5118705;28;1049;-45
2021/03/31 12:21:12;;;;;;;;;;;;;;;25.49;18.92;101676.63;5119075;28;890;-37
2021/03/31 12:23:37;;;;;;;;;;;;;;;25.70;18.02;101680.09;5119670;28;826;-40
2021/03/31 12:26:04;;;;;;;;;;;;;;;25.09;18.38;101661.63;5119279;28;867;-38
2021/03/31 12:28:31;;;;;;;;;;;;;;;25.21;18.66;101659.63;5118963;28;1901;-41
2021/03/31 12:30:57;;;;;;;;;;;;;;;26.06;18.45;101657.75;5119426;28;774;-37
2021/03/31 12:33:22;;;;;;;;;;;;;;;25.63;18.72;101645.66;5118409;28;965;-40
2021/03/31 12:35:47;;;;;;;;;;;;;;;25.31;18.82;101646.94;5119482;28;770;-37
2021/03/31 12:38:13;;;;;;;;;;;;;;;25.58;17.90;101647.06;5119149;28;782;-40
2021/03/31 12:40:38;;;;;;;;;;;;;;;25.16;18.19;101651.94;5118787;28;826;-37
2021/03/31 12:43:03;;;;;;;;;;;;;;;25.27;18.18;101643.72;5118453;28;1059;-41
2021/03/31 12:45:28;;;;;;;;;;;;;;;25.63;18.00;101651.06;5118950;28;858;-45
2021/03/31 12:47:54;;;;;;;;;;;;;;;25.76;18.14;101648.00;5117713;28;1981;-38
2021/03/31 12:50:21;;;;;;;;;;;;;;;26.20;17.98;101648.25;5118968;28;853;-44
2021/03/31 12:55:14;;;;;;;;;;;;;;;25.50;18.30;101637.06;5118736;28;762;-34
2021/03/31 12:57:39;;;;;;;;;;;;;;;25.74;18.03;101633.00;5118870;28;778;-39
2021/03/31 13:00:05;;;;;;;;;;;;;;;26.39;17.08;101631.91;5118970;28;742;-43
2021/03/31 13:02:30;;;;;;;;;;;;;;;26.09;17.72;101630.47;5110765;28;1193;-36
2021/03/31 13:04:56;;;;;;;;;;;;;;;25.75;17.56;101635.53;5080304;28;818;-40
2021/03/31 13:07:22;;;;;;;;;;;;;;;25.63;18.27;101626.81;5097756;28;1522;-33